sensor_id;sensor_type;location;lat;lon;timestamp;noise_LAeq;noise_LA_min;noise_LA_max;noise_LA01;noise_LA95
79288;Laerm;68737;53.946;27.634;2023-04-16T00:01:48;59.376274;41.699005;84.949875;;
79288;Laerm;68737;53.946;27.634;2023-04-16T00:04:18;56.924896;42.115120;83.945282;;
79288;Laerm;68737;53.946;27.634;2023-04-16T00:06:48;53.986786;42.457703;76.677193;;
79288;Laerm;68737;53.946;27.634;2023-04-16T00:09:18;54.659447;42.270111;84.202042;;
79288;Laerm;68737;53.946;27.634;2023-04-16T00:11:48;56.805450;43.408173;83.672195;;
79288;Laerm;68737;53.946;27.634;2023-04-16T00:14:18;54.298393;42.713020;80.358803;;
79288;Laerm;68737;53.946;27.634;2023-04-16T00:16:48;53.893425;42.742439;81.447723;;
79288;Laerm;68737;53.946;27.634;2023-04-16T00:19:18;51.957748;42.843170;81.753090;;
79288;Laerm;68737;53.946;27.634;2023-04-16T00:21:48;51.275444;42.897263;74.703781;;
79288;Laerm;68737;53.946;27.634;2023-04-16T00:24:18;48.063354;41.947990;73.175613;;
79288;Laerm;68737;53.946;27.634;2023-04-16T00:26:48;51.915977;43.495361;73.294785;;
79288;Laerm;68737;53.946;27.634;2023-04-16T00:29:18;50.573975;41.965286;74.745476;;
79288;Laerm;68737;53.946;27.634;2023-04-16T00:31:48;50.635735;43.335587;79.521088;;
79288;Laerm;68737;53.946;27.634;2023-04-16T00:34:18;53.068253;43.044128;81.488068;;
79288;Laerm;68737;53.946;27.634;2023-04-16T00:36:48;55.324554;45.463837;79.306053;;
79288;Laerm;68737;53.946;27.634;2023-04-16T00:39:18;54.426590;47.374222;80.746719;;
79288;Laerm;68737;53.946;27.634;2023-04-16T00:41:48;51.822540;45.863274;69.769577;;
79288;Laerm;68737;53.946;27.634;2023-04-16T00:44:18;48.212479;41.702873;70.185089;;
79288;Laerm;68737;53.946;27.634;2023-04-16T00:46:48;43.744308;40.784760;60.216740;;
79288;Laerm;68737;53.946;27.634;2023-04-16T00:49:18;53.041626;41.638474;66.761749;;
79288;Laerm;68737;53.946;27.634;2023-04-16T00:51:48;47.029335;41.625175;73.348251;;
79288;Laerm;68737;53.946;27.634;2023-04-16T00:54:18;52.515282;41.728554;72.295830;;
79288;Laerm;68737;53.946;27.634;2023-04-16T00:56:48;50.055672;41.702820;62.364456;;
79288;Laerm;68737;53.946;27.634;2023-04-16T00:59:18;53.959900;41.923790;64.495132;;
79288;Laerm;68737;53.946;27.634;2023-04-16T01:01:48;56.361122;45.552994;67.467674;;
79288;Laerm;68737;53.946;27.634;2023-04-16T01:04:18;56.128479;45.896027;67.290115;;
79288;Laerm;68737;53.946;27.634;2023-04-16T01:06:48;56.428391;45.221909;67.773315;;
79288;Laerm;68737;53.946;27.634;2023-04-16T01:09:18;54.293846;45.679016;63.889179;;
79288;Laerm;68737;53.946;27.634;2023-04-16T01:11:48;55.404877;46.083992;67.207031;;
79288;Laerm;68737;53.946;27.634;2023-04-16T01:14:18;56.572372;46.806320;73.854218;;
79288;Laerm;68737;53.946;27.634;2023-04-16T01:16:48;56.811897;45.221924;70.522263;;
79288;Laerm;68737;53.946;27.634;2023-04-16T01:19:18;56.532425;44.643288;67.215042;;
79288;Laerm;68737;53.946;27.634;2023-04-16T01:21:48;54.801453;41.471107;70.110802;;
79288;Laerm;68737;53.946;27.634;2023-04-16T01:24:18;52.925484;40.907242;68.811722;;
79288;Laerm;68737;53.946;27.634;2023-04-16T01:26:48;47.894020;41.966721;60.524082;;
79288;Laerm;68737;53.946;27.634;2023-04-16T01:29:18;50.102844;42.172935;65.159363;;
79288;Laerm;68737;53.946;27.634;2023-04-16T01:31:48;51.737030;42.354759;63.671017;;
79288;Laerm;68737;53.946;27.634;2023-04-16T01:34:18;51.532196;41.710968;65.621841;;
79288;Laerm;68737;53.946;27.634;2023-04-16T01:36:48;54.233421;44.690308;69.991028;;
79288;Laerm;68737;53.946;27.634;2023-04-16T01:39:18;50.140099;43.556442;61.110241;;
79288;Laerm;68737;53.946;27.634;2023-04-16T01:41:48;50.352905;42.312866;69.206039;;
79288;Laerm;68737;53.946;27.634;2023-04-16T01:44:18;48.087250;43.312721;65.978561;;
79288;Laerm;68737;53.946;27.634;2023-04-16T01:46:48;49.616455;41.925499;72.405693;;
79288;Laerm;68737;53.946;27.634;2023-04-16T01:49:18;51.416100;41.684494;72.896805;;
79288;Laerm;68737;53.946;27.634;2023-04-16T01:51:48;49.556633;42.248611;61.444504;;
79288;Laerm;68737;53.946;27.634;2023-04-16T01:54:18;49.753845;42.765846;79.617470;;
79288;Laerm;68737;53.946;27.634;2023-04-16T01:56:48;47.140007;42.317207;61.991737;;
79288;Laerm;68737;53.946;27.634;2023-04-16T01:59:18;49.839600;42.434181;61.805443;;
79288;Laerm;68737;53.946;27.634;2023-04-16T02:01:48;48.623512;41.310089;70.006332;;
79288;Laerm;68737;53.946;27.634;2023-04-16T02:04:18;52.173149;41.193382;64.038895;;
79288;Laerm;68737;53.946;27.634;2023-04-16T02:06:48;47.983208;40.435631;61.484421;;
79288;Laerm;68737;53.946;27.634;2023-04-16T02:09:18;52.355270;40.981247;81.805298;;
79288;Laerm;68737;53.946;27.634;2023-04-16T02:11:48;48.109688;41.442329;66.013428;;
79288;Laerm;68737;53.946;27.634;2023-04-16T02:14:18;47.660622;41.983810;63.675678;;
79288;Laerm;68737;53.946;27.634;2023-04-16T02:16:48;48.371979;42.359634;60.957253;;
79288;Laerm;68737;53.946;27.634;2023-04-16T02:19:18;51.250038;43.207558;61.729813;;
79288;Laerm;68737;53.946;27.634;2023-04-16T02:21:50;50.341423;44.202187;63.126278;;
79288;Laerm;68737;53.946;27.634;2023-04-16T02:24:18;49.432579;42.058418;70.504372;;
79288;Laerm;68737;53.946;27.634;2023-04-16T02:26:48;45.483521;40.436813;59.473526;;
79288;Laerm;68737;53.946;27.634;2023-04-16T02:29:18;48.587875;40.571152;62.585999;;
79288;Laerm;68737;53.946;27.634;2023-04-16T02:31:48;49.145508;40.938553;62.254250;;
79288;Laerm;68737;53.946;27.634;2023-04-16T02:34:18;46.493477;41.159439;58.753090;;
79288;Laerm;68737;53.946;27.634;2023-04-16T02:36:48;48.873360;41.792946;61.017239;;
79288;Laerm;68737;53.946;27.634;2023-04-16T02:39:18;50.198990;42.617050;63.258785;;
79288;Laerm;68737;53.946;27.634;2023-04-16T02:41:48;45.892799;40.085686;60.642635;;
79288;Laerm;68737;53.946;27.634;2023-04-16T02:44:18;52.091530;40.043571;75.895889;;
79288;Laerm;68737;53.946;27.634;2023-04-16T02:46:48;46.924530;40.439323;59.939228;;
79288;Laerm;68737;53.946;27.634;2023-04-16T02:49:18;48.547508;41.635475;61.965637;;
79288;Laerm;68737;53.946;27.634;2023-04-16T02:51:48;48.941963;42.313370;64.103317;;
79288;Laerm;68737;53.946;27.634;2023-04-16T02:54:18;51.653328;41.867264;67.422112;;
79288;Laerm;68737;53.946;27.634;2023-04-16T02:56:48;51.884903;42.322845;67.063232;;
79288;Laerm;68737;53.946;27.634;2023-04-16T02:59:18;51.551971;41.193039;65.594116;;
79288;Laerm;68737;53.946;27.634;2023-04-16T03:01:48;51.815765;42.293793;64.223770;;
79288;Laerm;68737;53.946;27.634;2023-04-16T03:04:18;50.231331;41.288986;67.148148;;
79288;Laerm;68737;53.946;27.634;2023-04-16T03:06:48;50.167618;42.049957;63.790024;;
79288;Laerm;68737;53.946;27.634;2023-04-16T03:09:18;50.423157;42.504623;69.296112;;
79288;Laerm;68737;53.946;27.634;2023-04-16T03:11:48;53.833427;43.204529;72.482918;;
79288;Laerm;68737;53.946;27.634;2023-04-16T03:14:18;56.324928;45.637817;81.413872;;
79288;Laerm;68737;53.946;27.634;2023-04-16T03:16:48;60.204227;45.064705;83.606682;;
79288;Laerm;68737;53.946;27.634;2023-04-16T03:19:18;60.209705;45.508789;84.278717;;
79288;Laerm;68737;53.946;27.634;2023-04-16T03:21:48;60.469288;45.640457;83.813721;;
79288;Laerm;68737;53.946;27.634;2023-04-16T03:24:18;59.855133;44.728119;83.029808;;
79288;Laerm;68737;53.946;27.634;2023-04-16T03:26:48;59.719257;44.232941;85.479767;;
79288;Laerm;68737;53.946;27.634;2023-04-16T03:29:18;57.942001;43.176476;85.369644;;
79288;Laerm;68737;53.946;27.634;2023-04-16T03:31:48;54.878548;43.534302;76.997696;;
79288;Laerm;68737;53.946;27.634;2023-04-16T03:34:18;55.244347;43.135750;81.824791;;
79288;Laerm;68737;53.946;27.634;2023-04-16T03:36:48;54.457474;43.363892;78.246323;;
79288;Laerm;68737;53.946;27.634;2023-04-16T03:39:18;55.545341;42.985909;82.957947;;
79288;Laerm;68737;53.946;27.634;2023-04-16T03:41:48;56.535255;42.881592;87.452362;;
79288;Laerm;68737;53.946;27.634;2023-04-16T03:44:18;52.629967;44.725700;71.174187;;
79288;Laerm;68737;53.946;27.634;2023-04-16T03:46:48;55.809410;44.703987;84.428497;;
79288;Laerm;68737;53.946;27.634;2023-04-16T03:49:18;56.878784;44.658180;74.723572;;
79288;Laerm;68737;53.946;27.634;2023-04-16T03:51:48;58.417732;44.795113;84.074936;;
79288;Laerm;68737;53.946;27.634;2023-04-16T03:54:18;56.656853;44.058083;85.547653;;
79288;Laerm;68737;53.946;27.634;2023-04-16T03:56:48;56.934692;43.580826;81.906761;;
79288;Laerm;68737;53.946;27.634;2023-04-16T03:59:18;52.984741;42.998589;76.377045;;
79288;Laerm;68737;53.946;27.634;2023-04-16T04:01:48;56.336189;44.416969;83.404953;;
79288;Laerm;68737;53.946;27.634;2023-04-16T04:04:18;56.267372;44.409462;85.125504;;
79288;Laerm;68737;53.946;27.634;2023-04-16T04:06:48;53.283310;43.325630;70.207344;;
79288;Laerm;68737;53.946;27.634;2023-04-16T04:09:18;56.805725;44.538536;81.802528;;
79288;Laerm;68737;53.946;27.634;2023-04-16T04:11:49;56.549896;44.195641;76.626663;;
79288;Laerm;68737;53.946;27.634;2023-04-16T04:14:18;54.499580;44.106277;80.385445;;
79288;Laerm;68737;53.946;27.634;2023-04-16T04:16:48;53.572006;44.489975;79.998634;;
79288;Laerm;68737;53.946;27.634;2023-04-16T04:19:18;56.286339;46.552177;73.446762;;
79288;Laerm;68737;53.946;27.634;2023-04-16T04:21:48;55.614685;44.722961;80.724213;;
79288;Laerm;68737;53.946;27.634;2023-04-16T04:24:18;55.600731;43.963013;73.218628;;
79288;Laerm;68737;53.946;27.634;2023-04-16T04:26:48;50.989738;43.487106;65.791733;;
79288;Laerm;68737;53.946;27.634;2023-04-16T04:29:18;55.788292;44.549484;71.724701;;
79288;Laerm;68737;53.946;27.634;2023-04-16T04:31:48;54.530754;44.908043;74.386475;;
79288;Laerm;68737;53.946;27.634;2023-04-16T04:34:18;54.304970;45.457970;72.033226;;
79288;Laerm;68737;53.946;27.634;2023-04-16T04:36:48;55.440506;44.493362;85.607773;;
79288;Laerm;68737;53.946;27.634;2023-04-16T04:39:18;53.896568;43.762970;67.852486;;
79288;Laerm;68737;53.946;27.634;2023-04-16T04:41:48;51.863029;43.551720;67.022202;;
79288;Laerm;68737;53.946;27.634;2023-04-16T04:44:18;51.131577;44.338493;71.263870;;
79288;Laerm;68737;53.946;27.634;2023-04-16T04:46:48;54.885101;45.274757;69.332382;;
79288;Laerm;68737;53.946;27.634;2023-04-16T04:49:18;54.071243;44.196381;73.322067;;
79288;Laerm;68737;53.946;27.634;2023-04-16T04:51:48;55.011620;43.893997;65.177086;;
79288;Laerm;68737;53.946;27.634;2023-04-16T04:54:18;54.054321;44.030724;64.836891;;
79288;Laerm;68737;53.946;27.634;2023-04-16T04:56:48;53.201393;44.673584;63.490852;;
79288;Laerm;68737;53.946;27.634;2023-04-16T04:59:19;50.633369;44.538399;65.525536;;
79288;Laerm;68737;53.946;27.634;2023-04-16T05:01:48;52.503326;44.087318;68.900902;;
79288;Laerm;68737;53.946;27.634;2023-04-16T05:04:18;55.129257;44.933228;68.931641;;
79288;Laerm;68737;53.946;27.634;2023-04-16T05:06:48;54.694641;43.871216;68.263741;;
79288;Laerm;68737;53.946;27.634;2023-04-16T05:09:18;51.734215;44.395393;64.004242;;
79288;Laerm;68737;53.946;27.634;2023-04-16T05:11:48;53.383408;44.059456;66.929642;;
79288;Laerm;68737;53.946;27.634;2023-04-16T05:14:18;56.085854;44.599396;79.305405;;
79288;Laerm;68737;53.946;27.634;2023-04-16T05:16:48;53.269875;44.976318;76.046539;;
79288;Laerm;68737;53.946;27.634;2023-04-16T05:19:18;53.192589;44.983070;63.536552;;
79288;Laerm;68737;53.946;27.634;2023-04-16T05:21:48;50.915237;43.654213;65.402542;;
79288;Laerm;68737;53.946;27.634;2023-04-16T05:24:18;53.503365;45.950989;64.067116;;
79288;Laerm;68737;53.946;27.634;2023-04-16T05:26:48;56.572769;46.288193;72.771942;;
79288;Laerm;68737;53.946;27.634;2023-04-16T05:29:18;52.936577;44.778458;64.038872;;
79288;Laerm;68737;53.946;27.634;2023-04-16T05:31:48;55.487465;45.231331;69.281792;;
79288;Laerm;68737;53.946;27.634;2023-04-16T05:34:18;54.443024;44.883118;76.791016;;
79288;Laerm;68737;53.946;27.634;2023-04-16T05:36:48;54.467224;44.071587;70.071075;;
79288;Laerm;68737;53.946;27.634;2023-04-16T05:39:18;54.311569;44.913406;65.634438;;
79288;Laerm;68737;53.946;27.634;2023-04-16T05:41:48;52.360397;44.821213;67.868469;;
79288;Laerm;68737;53.946;27.634;2023-04-16T05:44:18;54.924652;44.527000;66.306458;;
79288;Laerm;68737;53.946;27.634;2023-04-16T05:46:48;52.847588;44.911217;63.480816;;
79288;Laerm;68737;53.946;27.634;2023-04-16T05:49:17;53.755814;45.332039;74.565903;;
79288;Laerm;68737;53.946;27.634;2023-04-16T05:51:48;53.949196;46.040619;64.302383;;
79288;Laerm;68737;53.946;27.634;2023-04-16T05:54:18;53.453987;45.317886;66.171181;;
79288;Laerm;68737;53.946;27.634;2023-04-16T05:56:48;54.474586;46.197121;63.635345;;
79288;Laerm;68737;53.946;27.634;2023-04-16T05:59:17;54.397156;46.338303;72.099792;;
79288;Laerm;68737;53.946;27.634;2023-04-16T06:01:47;59.553925;46.838127;73.237335;;
79288;Laerm;68737;53.946;27.634;2023-04-16T06:04:17;52.421921;45.274445;61.834503;;
79288;Laerm;68737;53.946;27.634;2023-04-16T06:06:47;55.340340;44.933151;65.723495;;
79288;Laerm;68737;53.946;27.634;2023-04-16T06:09:17;50.652008;45.474022;63.328152;;
79288;Laerm;68737;53.946;27.634;2023-04-16T06:11:47;55.983398;46.419456;66.525352;;
79288;Laerm;68737;53.946;27.634;2023-04-16T06:14:17;56.557594;44.425224;66.803658;;
79288;Laerm;68737;53.946;27.634;2023-04-16T06:16:47;54.677452;45.780777;76.518715;;
79288;Laerm;68737;53.946;27.634;2023-04-16T06:19:17;55.065033;45.585930;70.229401;;
79288;Laerm;68737;53.946;27.634;2023-04-16T06:21:47;58.775345;45.235863;77.263206;;
79288;Laerm;68737;53.946;27.634;2023-04-16T06:24:18;56.219589;44.902679;70.075684;;
79288;Laerm;68737;53.946;27.634;2023-04-16T06:26:47;53.726501;45.114792;64.114464;;
79288;Laerm;68737;53.946;27.634;2023-04-16T06:29:17;51.661636;44.505028;60.479942;;
79288;Laerm;68737;53.946;27.634;2023-04-16T06:31:47;55.400452;46.080566;65.173157;;
79288;Laerm;68737;53.946;27.634;2023-04-16T06:34:18;54.647148;45.349319;66.338425;;
79288;Laerm;68737;53.946;27.634;2023-04-16T06:36:47;54.266968;44.648064;63.928650;;
79288;Laerm;68737;53.946;27.634;2023-04-16T06:39:17;54.219795;46.746284;63.569759;;
79288;Laerm;68737;53.946;27.634;2023-04-16T06:41:47;53.297981;44.515350;65.820953;;
79288;Laerm;68737;53.946;27.634;2023-04-16T06:44:17;55.205879;46.270096;66.938889;;
79288;Laerm;68737;53.946;27.634;2023-04-16T06:46:47;56.193382;46.091385;65.949219;;
79288;Laerm;68737;53.946;27.634;2023-04-16T06:49:18;54.172218;46.550247;61.224197;;
79288;Laerm;68737;53.946;27.634;2023-04-16T06:51:47;54.359291;46.385429;63.059078;;
79288;Laerm;68737;53.946;27.634;2023-04-16T06:54:17;55.288834;46.533127;63.615658;;
79288;Laerm;68737;53.946;27.634;2023-04-16T06:56:47;59.523148;46.753807;69.230682;;
79288;Laerm;68737;53.946;27.634;2023-04-16T06:59:17;57.567848;48.404396;70.726845;;
79288;Laerm;68737;53.946;27.634;2023-04-16T07:01:47;56.646729;47.800621;65.387680;;
79288;Laerm;68737;53.946;27.634;2023-04-16T07:04:17;53.000206;46.171738;62.010509;;
79288;Laerm;68737;53.946;27.634;2023-04-16T07:06:47;54.011261;46.174896;61.539017;;
79288;Laerm;68737;53.946;27.634;2023-04-16T07:09:17;54.116524;46.214417;62.810131;;
79288;Laerm;68737;53.946;27.634;2023-04-16T07:11:47;54.978546;47.082352;65.373878;;
79288;Laerm;68737;53.946;27.634;2023-04-16T07:14:17;55.449875;47.571526;64.018501;;
79288;Laerm;68737;53.946;27.634;2023-04-16T07:16:47;56.063789;47.795235;63.484741;;
79288;Laerm;68737;53.946;27.634;2023-04-16T07:19:17;54.914261;45.601646;69.322014;;
79288;Laerm;68737;53.946;27.634;2023-04-16T07:21:47;55.680992;49.058846;63.846096;;
79288;Laerm;68737;53.946;27.634;2023-04-16T07:24:17;54.770584;47.254143;63.714092;;
79288;Laerm;68737;53.946;27.634;2023-04-16T07:26:47;54.625656;46.314774;66.530670;;
79288;Laerm;68737;53.946;27.634;2023-04-16T07:29:17;54.320862;46.263397;74.814331;;
79288;Laerm;68737;53.946;27.634;2023-04-16T07:31:47;55.165611;47.240822;67.028427;;
79288;Laerm;68737;53.946;27.634;2023-04-16T07:34:17;55.353188;46.388672;64.560562;;
79288;Laerm;68737;53.946;27.634;2023-04-16T07:36:47;55.421761;47.258522;68.342247;;
79288;Laerm;68737;53.946;27.634;2023-04-16T07:39:17;55.420570;47.113548;64.937218;;
79288;Laerm;68737;53.946;27.634;2023-04-16T07:41:47;54.998779;47.525177;63.147034;;
79288;Laerm;68737;53.946;27.634;2023-04-16T07:44:17;55.445137;47.636398;64.320251;;
79288;Laerm;68737;53.946;27.634;2023-04-16T07:46:47;53.549698;46.197495;69.254303;;
79288;Laerm;68737;53.946;27.634;2023-04-16T07:49:17;56.259598;46.857903;73.150139;;
79288;Laerm;68737;53.946;27.634;2023-04-16T07:51:47;53.960175;47.041939;64.178391;;
79288;Laerm;68737;53.946;27.634;2023-04-16T07:54:17;54.779007;47.697815;63.323807;;
79288;Laerm;68737;53.946;27.634;2023-04-16T07:56:47;55.208023;48.627281;64.391388;;
79288;Laerm;68737;53.946;27.634;2023-04-16T07:59:17;54.002121;48.069984;61.942795;;
79288;Laerm;68737;53.946;27.634;2023-04-16T08:01:47;56.558273;47.529526;64.677872;;
79288;Laerm;68737;53.946;27.634;2023-04-16T08:04:17;54.933220;46.151367;63.204708;;
79288;Laerm;68737;53.946;27.634;2023-04-16T08:06:47;55.796005;47.481499;77.038437;;
79288;Laerm;68737;53.946;27.634;2023-04-16T08:11:47;55.209312;46.680412;66.908569;;
79288;Laerm;68737;53.946;27.634;2023-04-16T08:14:17;55.215096;46.176048;71.573875;;
79288;Laerm;68737;53.946;27.634;2023-04-16T08:16:48;56.226601;49.290337;65.465866;;
79288;Laerm;68737;53.946;27.634;2023-04-16T08:19:17;57.267204;47.487717;66.629471;;
79288;Laerm;68737;53.946;27.634;2023-04-16T08:21:47;55.148758;47.395210;61.874401;;
79288;Laerm;68737;53.946;27.634;2023-04-16T08:24:17;54.652725;46.758224;64.310394;;
79288;Laerm;68737;53.946;27.634;2023-04-16T08:26:47;57.520378;51.162445;71.932953;;
79288;Laerm;68737;53.946;27.634;2023-04-16T08:29:17;56.726067;50.076698;66.777252;;
79288;Laerm;68737;53.946;27.634;2023-04-16T08:31:47;55.288628;50.135605;61.775948;;
79288;Laerm;68737;53.946;27.634;2023-04-16T08:34:17;59.466507;48.055878;73.102783;;
79288;Laerm;68737;53.946;27.634;2023-04-16T08:36:47;54.839401;47.857292;61.853848;;
79288;Laerm;68737;53.946;27.634;2023-04-16T08:39:17;54.529236;47.434540;66.183159;;
79288;Laerm;68737;53.946;27.634;2023-04-16T08:41:47;58.063789;49.682434;68.134232;;
79288;Laerm;68737;53.946;27.634;2023-04-16T08:46:47;56.580513;48.191505;66.751747;;
79288;Laerm;68737;53.946;27.634;2023-04-16T08:49:17;55.630844;47.302322;65.492943;;
79288;Laerm;68737;53.946;27.634;2023-04-16T08:51:48;56.240288;47.246117;71.480453;;
79288;Laerm;68737;53.946;27.634;2023-04-16T08:56:47;55.646004;47.665695;68.209549;;
79288;Laerm;68737;53.946;27.634;2023-04-16T08:59:17;56.341171;48.944717;64.444931;;
79288;Laerm;68737;53.946;27.634;2023-04-16T09:01:47;56.539322;50.221436;68.157761;;
79288;Laerm;68737;53.946;27.634;2023-04-16T09:04:17;54.096786;46.714363;64.892426;;
79288;Laerm;68737;53.946;27.634;2023-04-16T09:06:47;57.101784;48.192947;65.064682;;
79288;Laerm;68737;53.946;27.634;2023-04-16T09:09:17;54.227661;46.909813;63.124763;;
79288;Laerm;68737;53.946;27.634;2023-04-16T09:11:49;55.561829;47.714561;63.514778;;
79288;Laerm;68737;53.946;27.634;2023-04-16T09:14:17;54.928192;47.781067;62.856445;;
79288;Laerm;68737;53.946;27.634;2023-04-16T09:16:48;55.871864;47.265343;63.986824;;
79288;Laerm;68737;53.946;27.634;2023-04-16T09:19:17;54.460243;47.357399;67.180710;;
79288;Laerm;68737;53.946;27.634;2023-04-16T09:21:48;55.947174;47.230408;63.462589;;
79288;Laerm;68737;53.946;27.634;2023-04-16T09:24:17;55.383209;46.247856;62.036762;;
79288;Laerm;68737;53.946;27.634;2023-04-16T09:26:47;54.793900;47.565033;63.876335;;
79288;Laerm;68737;53.946;27.634;2023-04-16T09:34:17;53.574333;46.518028;63.672989;;
79288;Laerm;68737;53.946;27.634;2023-04-16T09:36:47;54.036705;47.195747;67.372238;;
79288;Laerm;68737;53.946;27.634;2023-04-16T09:39:17;54.813820;46.039131;64.968185;;
79288;Laerm;68737;53.946;27.634;2023-04-16T09:41:47;56.096878;47.302887;65.226463;;
79288;Laerm;68737;53.946;27.634;2023-04-16T09:44:17;54.764832;47.367134;62.572701;;
79288;Laerm;68737;53.946;27.634;2023-04-16T09:46:47;55.028900;46.237640;63.075230;;
79288;Laerm;68737;53.946;27.634;2023-04-16T09:49:17;54.721985;45.543297;68.014633;;
79288;Laerm;68737;53.946;27.634;2023-04-16T09:51:47;55.885780;47.387787;64.766220;;
79288;Laerm;68737;53.946;27.634;2023-04-16T09:54:18;54.816521;46.407501;64.036461;;
79288;Laerm;68737;53.946;27.634;2023-04-16T09:56:47;54.267426;47.355682;61.540741;;
79288;Laerm;68737;53.946;27.634;2023-04-16T09:59:22;55.534302;47.256004;62.910957;;
79288;Laerm;68737;53.946;27.634;2023-04-16T10:01:48;55.748672;48.330902;64.245529;;
79288;Laerm;68737;53.946;27.634;2023-04-16T10:04:17;55.704605;48.621071;62.915733;;
79288;Laerm;68737;53.946;27.634;2023-04-16T10:07:01;55.390900;48.528503;65.680634;;
79288;Laerm;68737;53.946;27.634;2023-04-16T10:09:19;55.726295;46.760605;68.962601;;
79288;Laerm;68737;53.946;27.634;2023-04-16T10:11:47;54.795082;47.650757;63.121910;;
79288;Laerm;68737;53.946;27.634;2023-04-16T10:14:17;54.754929;45.515610;62.837814;;
79288;Laerm;68737;53.946;27.634;2023-04-16T10:16:47;56.192978;46.625603;65.922180;;
79288;Laerm;68737;53.946;27.634;2023-04-16T10:19:17;55.719498;47.143875;69.556351;;
79288;Laerm;68737;53.946;27.634;2023-04-16T10:21:47;52.447098;46.639404;60.463543;;
79288;Laerm;68737;53.946;27.634;2023-04-16T10:24:17;54.720825;46.720238;61.866268;;
79288;Laerm;68737;53.946;27.634;2023-04-16T10:26:47;54.962952;47.872421;62.001240;;
79288;Laerm;68737;53.946;27.634;2023-04-16T10:31:47;55.612099;46.884811;63.841900;;
79288;Laerm;68737;53.946;27.634;2023-04-16T10:34:17;54.053040;46.176422;61.532040;;
79288;Laerm;68737;53.946;27.634;2023-04-16T10:36:48;54.733521;45.933365;66.957825;;
79288;Laerm;68737;53.946;27.634;2023-04-16T10:39:18;55.025681;45.444664;64.049545;;
79288;Laerm;68737;53.946;27.634;2023-04-16T10:41:47;54.922905;47.253899;63.121468;;
79288;Laerm;68737;53.946;27.634;2023-04-16T10:44:18;56.197578;47.182472;67.184509;;
79288;Laerm;68737;53.946;27.634;2023-04-16T10:46:47;55.092667;45.398453;62.935253;;
79288;Laerm;68737;53.946;27.634;2023-04-16T10:49:18;54.434090;46.133263;62.879517;;
79288;Laerm;68737;53.946;27.634;2023-04-16T10:56:48;53.451515;46.032478;63.231010;;
79288;Laerm;68737;53.946;27.634;2023-04-16T11:01:49;54.319878;46.136040;63.470016;;
79288;Laerm;68737;53.946;27.634;2023-04-16T11:11:47;55.208328;46.489189;63.794231;;
79288;Laerm;68737;53.946;27.634;2023-04-16T11:14:17;54.158630;46.000031;62.544895;;
79288;Laerm;68737;53.946;27.634;2023-04-16T11:16:47;55.301620;45.847099;66.339447;;
79288;Laerm;68737;53.946;27.634;2023-04-16T11:19:17;55.167328;46.144791;64.726486;;
79288;Laerm;68737;53.946;27.634;2023-04-16T11:21:47;54.472336;46.171257;62.562485;;
79288;Laerm;68737;53.946;27.634;2023-04-16T11:24:17;53.542831;45.740845;61.668331;;
79288;Laerm;68737;53.946;27.634;2023-04-16T11:26:49;54.366348;46.370491;64.132538;;
79288;Laerm;68737;53.946;27.634;2023-04-16T11:29:17;56.485367;46.175171;76.966232;;
79288;Laerm;68737;53.946;27.634;2023-04-16T11:34:17;54.163048;45.855064;63.506733;;
79288;Laerm;68737;53.946;27.634;2023-04-16T11:36:48;54.308159;45.767143;62.145500;;
79288;Laerm;68737;53.946;27.634;2023-04-16T11:39:17;53.267097;46.510078;62.073212;;
79288;Laerm;68737;53.946;27.634;2023-04-16T11:41:48;55.012520;47.817795;62.900887;;
79288;Laerm;68737;53.946;27.634;2023-04-16T11:46:47;55.240517;47.455338;62.711952;;
79288;Laerm;68737;53.946;27.634;2023-04-16T11:49:26;55.868797;47.412827;67.745575;;
79288;Laerm;68737;53.946;27.634;2023-04-16T11:51:47;54.521393;46.949913;65.298431;;
79288;Laerm;68737;53.946;27.634;2023-04-16T11:54:22;53.457733;45.241844;61.836323;;
79288;Laerm;68737;53.946;27.634;2023-04-16T11:56:48;55.054863;46.830193;63.659153;;
79288;Laerm;68737;53.946;27.634;2023-04-16T11:59:18;53.696579;47.275421;66.703667;;
79288;Laerm;68737;53.946;27.634;2023-04-16T12:01:48;55.140625;48.953423;63.341488;;
79288;Laerm;68737;53.946;27.634;2023-04-16T12:04:18;54.105583;47.326958;63.377701;;
79288;Laerm;68737;53.946;27.634;2023-04-16T12:11:47;56.058739;49.165657;71.537476;;
79288;Laerm;68737;53.946;27.634;2023-04-16T12:14:17;55.341629;49.421303;73.371727;;
79288;Laerm;68737;53.946;27.634;2023-04-16T12:16:47;54.571243;47.081367;65.159653;;
79288;Laerm;68737;53.946;27.634;2023-04-16T12:19:17;53.453011;47.993637;64.144539;;
79288;Laerm;68737;53.946;27.634;2023-04-16T12:21:48;55.226997;48.471939;68.153969;;
79288;Laerm;68737;53.946;27.634;2023-04-16T12:24:17;52.917999;46.356239;62.505871;;
79288;Laerm;68737;53.946;27.634;2023-04-16T12:26:50;54.304588;47.114021;66.200821;;
79288;Laerm;68737;53.946;27.634;2023-04-16T12:31:47;52.245865;47.427872;60.321964;;